createdAt,value
2017-07-16T00:02:15.104Z,0
2017-07-16T00:04:39.146Z,0
2017-07-16T00:07:03.159Z,0
2017-07-16T00:09:27.191Z,0
2017-07-16T00:11:42.767Z,0
2017-07-16T00:14:06.763Z,0
2017-07-16T00:16:22.292Z,0
2017-07-16T00:18:37.854Z,0
2017-07-16T00:21:01.816Z,0
2017-07-16T00:23:25.822Z,0
2017-07-16T00:25:49.819Z,0
2017-07-16T00:28:13.852Z,0
2017-07-16T00:30:37.837Z,0
2017-07-16T00:33:01.908Z,0
2017-07-16T00:35:26.007Z,0
2017-07-16T00:37:41.614Z,0
2017-07-16T00:40:05.571Z,0
2017-07-16T00:42:21.185Z,0
2017-07-16T00:44:45.316Z,0
2017-07-16T00:47:09.316Z,0
2017-07-16T00:49:33.375Z,0
2017-07-16T00:51:57.453Z,0
2017-07-16T00:54:21.549Z,0
2017-07-16T00:58:39.804Z,0
2017-07-16T01:01:03.846Z,0
2017-07-16T01:03:27.865Z,0
2017-07-16T01:05:51.901Z,0
2017-07-16T01:08:07.478Z,0
2017-07-16T01:10:31.499Z,0
2017-07-16T01:12:47.101Z,0
2017-07-16T01:15:02.687Z,0
2017-07-16T01:17:18.330Z,0
2017-07-16T01:19:42.377Z,0
2017-07-16T01:21:49.589Z,0
2017-07-16T01:24:13.598Z,0
2017-07-16T01:26:37.621Z,0
2017-07-16T01:29:01.675Z,0
2017-07-16T01:31:25.749Z,0
2017-07-16T01:33:49.823Z,0
2017-07-16T01:36:13.903Z,0
2017-07-16T01:38:37.938Z,0
2017-07-16T01:41:02.075Z,0
2017-07-16T01:43:26.094Z,0
2017-07-16T01:45:50.107Z,0
2017-07-16T01:48:14.218Z,0
2017-07-16T01:50:38.240Z,0
2017-07-16T01:53:02.282Z,0
2017-07-16T01:55:26.301Z,0
2017-07-16T01:57:50.296Z,0
2017-07-16T02:00:14.295Z,0
2017-07-16T02:02:38.281Z,0
2017-07-16T02:05:02.288Z,0
2017-07-16T02:07:26.362Z,0
2017-07-16T02:11:43.362Z,0
2017-07-16T02:14:07.369Z,0
2017-07-16T02:16:31.359Z,0
2017-07-16T02:18:46.843Z,0
2017-07-16T02:21:10.898Z,0
2017-07-16T02:23:34.988Z,0
2017-07-16T02:25:58.869Z,0
2017-07-16T02:30:24.272Z,0
2017-07-16T02:32:39.799Z,0
2017-07-16T02:35:03.752Z,0
2017-07-16T02:37:19.270Z,0
2017-07-16T02:41:53.196Z,0
2017-07-16T02:44:17.170Z,0
2017-07-16T02:48:42.458Z,0
2017-07-16T02:53:07.721Z,0
2017-07-16T02:55:23.254Z,0
2017-07-16T02:57:47.172Z,0
2017-07-16T03:00:11.126Z,0
2017-07-16T03:02:26.652Z,0
2017-07-16T03:04:42.145Z,0
2017-07-16T03:07:06.074Z,0
2017-07-16T03:09:30.042Z,0
2017-07-16T03:11:54.014Z,0
2017-07-16T03:14:18.001Z,0
2017-07-16T03:16:41.976Z,0
2017-07-16T03:19:05.951Z,0
2017-07-16T03:21:21.514Z,0
2017-07-16T03:23:37.008Z,0
2017-07-16T03:25:52.599Z,0
2017-07-16T03:30:26.521Z,0
2017-07-16T03:32:50.449Z,0
2017-07-16T03:35:05.935Z,0
2017-07-16T03:37:29.894Z,0
2017-07-16T03:39:53.808Z,0
2017-07-16T03:42:17.754Z,0
2017-07-16T03:44:41.691Z,0
2017-07-16T03:47:05.601Z,0
2017-07-16T03:49:29.580Z,0
2017-07-16T03:51:53.546Z,0
2017-07-16T03:54:17.511Z,0
2017-07-16T03:56:41.517Z,0
2017-07-16T03:59:05.588Z,0
2017-07-16T04:01:29.514Z,5
2017-07-16T04:03:53.569Z,5
2017-07-16T04:06:17.650Z,5
2017-07-16T04:10:34.651Z,5
2017-07-16T04:12:58.625Z,5
2017-07-16T04:15:14.154Z,10
2017-07-16T04:17:38.206Z,10
2017-07-16T04:20:02.292Z,10
2017-07-16T04:22:17.813Z,10
2017-07-16T04:24:41.774Z,10
2017-07-16T04:27:05.737Z,15
2017-07-16T04:29:21.264Z,15
2017-07-16T04:31:45.297Z,15
2017-07-16T04:33:52.400Z,15
2017-07-16T04:36:16.473Z,15
2017-07-16T04:38:40.543Z,15
2017-07-16T04:41:04.639Z,15
2017-07-16T04:43:28.616Z,15
2017-07-16T04:45:52.582Z,15
2017-07-16T04:48:08.228Z,15
2017-07-16T04:50:23.756Z,15
2017-07-16T04:52:47.839Z,15
2017-07-16T04:54:54.978Z,15
2017-07-16T04:57:19.001Z,15
2017-07-16T04:59:43.077Z,15
2017-07-16T05:02:07.184Z,20
2017-07-16T05:04:31.258Z,20
2017-07-16T05:06:46.905Z,15
2017-07-16T05:09:10.908Z,15
2017-07-16T05:11:34.951Z,15
2017-07-16T05:16:00.447Z,20
2017-07-16T05:18:24.486Z,25
2017-07-16T05:20:40.084Z,30
2017-07-16T05:23:04.100Z,35
2017-07-16T05:25:28.161Z,40
2017-07-16T05:27:52.242Z,40
2017-07-16T05:30:16.341Z,45
2017-07-16T05:32:40.436Z,75
2017-07-16T05:35:04.507Z,165
2017-07-16T05:37:28.677Z,110
2017-07-16T05:39:53.050Z,100
2017-07-16T05:42:08.988Z,75
2017-07-16T05:44:33.336Z,65
2017-07-16T05:46:49.256Z,60
2017-07-16T05:49:13.606Z,60
2017-07-16T05:51:38.012Z,65
2017-07-16T05:53:45.465Z,70
2017-07-16T05:56:01.281Z,65
2017-07-16T05:58:25.651Z,55
2017-07-16T06:00:49.906Z,55
2017-07-16T06:05:15.654Z,50
2017-07-16T06:07:39.907Z,50
2017-07-16T06:10:04.163Z,50
2017-07-16T06:12:28.906Z,50
2017-07-16T06:14:53.132Z,50
2017-07-16T06:17:17.344Z,55
2017-07-16T06:19:41.592Z,55
2017-07-16T06:22:05.805Z,55
2017-07-16T06:24:21.576Z,55
2017-07-16T06:26:45.836Z,55
2017-07-16T06:29:10.128Z,55
2017-07-16T06:31:34.415Z,55
2017-07-16T06:33:50.174Z,55
2017-07-16T06:36:05.914Z,55
2017-07-16T06:38:30.091Z,55
2017-07-16T06:40:54.365Z,55
2017-07-16T06:43:18.648Z,70
2017-07-16T06:47:52.838Z,100
2017-07-16T06:50:17.126Z,130
2017-07-16T06:52:41.445Z,150
2017-07-16T06:55:05.785Z,165
2017-07-16T06:57:30.114Z,125
2017-07-16T06:59:46.109Z,115
2017-07-16T07:02:10.489Z,100
2017-07-16T07:04:26.496Z,85
2017-07-16T07:06:50.938Z,80
2017-07-16T07:09:15.327Z,80
2017-07-16T07:11:39.692Z,75
2017-07-16T07:14:04.115Z,75
2017-07-16T07:16:28.525Z,75
2017-07-16T07:18:53.000Z,75
2017-07-16T07:21:17.364Z,80
2017-07-16T07:23:33.274Z,85
2017-07-16T07:25:49.385Z,90
2017-07-16T07:28:13.867Z,95
2017-07-16T07:30:38.439Z,105
2017-07-16T07:33:02.940Z,110
2017-07-16T07:35:27.414Z,110
2017-07-16T07:37:43.365Z,110
2017-07-16T07:40:07.801Z,105
2017-07-16T07:42:32.252Z,105
2017-07-16T07:44:56.656Z,105
2017-07-16T07:47:21.163Z,100
2017-07-16T07:49:45.527Z,100
2017-07-16T07:52:09.926Z,100
2017-07-16T07:54:25.888Z,105
2017-07-16T07:56:50.289Z,105
2017-07-16T07:59:14.751Z,110
2017-07-16T08:01:39.198Z,120
2017-07-16T08:04:03.658Z,125
2017-07-16T08:06:28.104Z,125
2017-07-16T08:08:52.529Z,130
2017-07-16T08:11:08.544Z,130
2017-07-16T08:13:33.015Z,140
2017-07-16T08:20:17.688Z,150
2017-07-16T08:22:42.261Z,130
2017-07-16T08:25:06.830Z,115
2017-07-16T08:27:31.355Z,110
2017-07-16T08:29:56.010Z,110
2017-07-16T08:32:20.532Z,110
2017-07-16T08:34:36.614Z,110
2017-07-16T08:37:01.190Z,115
2017-07-16T08:39:25.798Z,145
2017-07-16T08:41:50.389Z,170
2017-07-16T08:44:14.967Z,210
2017-07-16T08:46:39.577Z,230
2017-07-16T08:49:04.282Z,270
2017-07-16T08:51:29.105Z,280
2017-07-16T08:53:53.929Z,245
2017-07-16T08:56:18.843Z,265
2017-07-16T08:58:43.622Z,265
2017-07-16T09:01:08.530Z,280
2017-07-16T09:03:33.519Z,235
2017-07-16T09:05:58.599Z,215
2017-07-16T09:08:23.649Z,205
2017-07-16T09:12:50.335Z,200
2017-07-16T09:15:15.372Z,190
2017-07-16T09:17:40.405Z,175
2017-07-16T09:20:05.445Z,170
2017-07-16T09:22:30.429Z,155
2017-07-16T09:24:55.449Z,155
2017-07-16T09:27:11.915Z,160
2017-07-16T09:29:36.817Z,180
2017-07-16T09:32:01.721Z,210
2017-07-16T09:34:18.078Z,175
2017-07-16T09:36:42.981Z,170
2017-07-16T09:39:00.525Z,170
2017-07-16T09:41:25.470Z,185
2017-07-16T09:43:50.325Z,200
2017-07-16T09:46:15.125Z,205
2017-07-16T09:48:31.585Z,220
2017-07-16T09:50:56.494Z,255
2017-07-16T09:53:21.437Z,250
2017-07-16T09:55:46.412Z,260
2017-07-16T09:58:11.565Z,280
2017-07-16T10:00:36.601Z,265
2017-07-16T10:03:01.722Z,270
2017-07-16T10:05:26.818Z,230
2017-07-16T10:07:52.045Z,225
2017-07-16T10:10:17.316Z,225
2017-07-16T10:12:42.435Z,235
2017-07-16T10:15:07.562Z,240
2017-07-16T10:17:32.617Z,260
2017-07-16T10:19:57.730Z,245
2017-07-16T10:22:22.911Z,265
2017-07-16T10:24:48.047Z,235
2017-07-16T10:27:14.134Z,235
2017-07-16T10:29:39.308Z,230
2017-07-16T10:32:04.687Z,225
2017-07-16T10:34:36.826Z,220
2017-07-16T10:37:02.179Z,205
2017-07-16T10:39:28.314Z,215
2017-07-16T10:41:53.562Z,220
2017-07-16T10:44:18.714Z,240
2017-07-16T10:46:43.971Z,225
2017-07-16T10:49:08.252Z,210
2017-07-16T10:51:33.453Z,210
2017-07-16T10:53:58.663Z,190
2017-07-16T10:56:23.976Z,185
2017-07-16T10:58:49.169Z,200
2017-07-16T11:01:14.295Z,190
2017-07-16T11:03:39.522Z,185
2017-07-16T11:06:04.692Z,185
2017-07-16T11:08:29.840Z,185
2017-07-16T11:10:54.974Z,185
2017-07-16T11:13:20.243Z,185
2017-07-16T11:15:46.442Z,215
2017-07-16T11:18:11.613Z,185
2017-07-16T11:20:37.803Z,185
2017-07-16T11:23:02.964Z,180
2017-07-16T11:25:28.088Z,180
2017-07-16T11:27:54.221Z,160
2017-07-16T11:30:20.355Z,175
2017-07-16T11:32:45.456Z,165
2017-07-16T11:35:10.884Z,150
2017-07-16T11:37:27.697Z,150
2017-07-16T11:39:53.893Z,155
2017-07-16T11:42:19.015Z,140
2017-07-16T11:44:44.168Z,135
2017-07-16T11:47:09.349Z,130
2017-07-16T11:49:34.420Z,135
2017-07-16T11:51:59.458Z,130
2017-07-16T11:56:17.732Z,135
2017-07-16T11:58:42.769Z,145
2017-07-16T12:01:07.786Z,145
2017-07-16T12:03:32.772Z,150
2017-07-16T12:05:57.792Z,150
2017-07-16T12:08:22.794Z,150
2017-07-16T12:10:39.378Z,155
2017-07-16T12:13:04.463Z,165
2017-07-16T12:15:21.029Z,170
2017-07-16T12:17:46.125Z,165
2017-07-16T12:20:03.484Z,155
2017-07-16T12:22:20.091Z,165
2017-07-16T12:24:36.672Z,160
2017-07-16T12:27:01.886Z,165
2017-07-16T12:31:37.608Z,150
2017-07-16T12:36:04.645Z,155
2017-07-16T12:38:29.847Z,145
2017-07-16T12:40:55.022Z,140
2017-07-16T12:43:20.172Z,135
2017-07-16T12:45:36.824Z,145
2017-07-16T12:47:53.416Z,145
2017-07-16T12:50:18.596Z,145
2017-07-16T12:52:43.762Z,150
2017-07-16T12:55:00.378Z,145
2017-07-16T12:57:25.542Z,145
2017-07-16T12:59:51.867Z,150
2017-07-16T13:02:16.973Z,150
2017-07-16T13:04:42.060Z,145
2017-07-16T13:08:51.839Z,140
2017-07-16T13:11:16.954Z,150
2017-07-16T13:13:42.057Z,145
2017-07-16T13:16:07.141Z,145
2017-07-16T13:18:32.251Z,135
2017-07-16T13:20:48.796Z,125
2017-07-16T13:25:15.518Z,130
2017-07-16T13:27:40.572Z,125
2017-07-16T13:30:05.628Z,125
2017-07-16T13:32:30.679Z,135
2017-07-16T13:34:55.717Z,130
2017-07-16T13:37:20.757Z,125
2017-07-16T13:39:45.900Z,115
2017-07-16T13:42:11.007Z,115
2017-07-16T13:48:31.836Z,120
2017-07-16T13:50:48.363Z,115
2017-07-16T13:55:15.391Z,115
2017-07-16T13:57:40.373Z,115
2017-07-16T14:00:05.356Z,115
2017-07-16T14:02:30.358Z,90
2017-07-16T14:04:55.356Z,110
2017-07-16T14:07:20.360Z,110
2017-07-16T14:09:45.338Z,115
2017-07-16T14:12:10.317Z,110
2017-07-16T14:14:35.381Z,115
2017-07-16T14:17:00.364Z,115
2017-07-16T14:19:25.329Z,120
2017-07-16T14:21:50.323Z,120
2017-07-16T14:24:06.874Z,115
2017-07-16T14:26:23.362Z,105
2017-07-16T14:28:48.360Z,105
2017-07-16T14:31:13.348Z,105
2017-07-16T14:33:38.418Z,105
2017-07-16T14:36:03.461Z,105
2017-07-16T14:38:28.536Z,105
2017-07-16T14:40:53.713Z,100
2017-07-16T14:43:18.783Z,100
2017-07-16T14:45:43.927Z,95
2017-07-16T14:48:09.003Z,95
2017-07-16T14:52:36.419Z,90
2017-07-16T14:55:01.672Z,90
2017-07-16T14:59:37.260Z,90
2017-07-16T15:01:53.801Z,90
2017-07-16T15:04:10.340Z,85
2017-07-16T15:06:35.307Z,80
2017-07-16T15:09:00.309Z,80
2017-07-16T15:11:25.381Z,80
2017-07-16T15:13:50.386Z,80
2017-07-16T15:16:15.339Z,80
2017-07-16T15:18:40.268Z,80
2017-07-16T15:21:05.216Z,80
2017-07-16T15:23:30.145Z,75
2017-07-16T15:25:55.038Z,75
2017-07-16T15:28:11.410Z,75
2017-07-16T15:32:30.069Z,80
2017-07-16T15:34:54.952Z,80
2017-07-16T15:37:19.860Z,85
2017-07-16T15:39:44.682Z,90
2017-07-16T15:42:09.470Z,85
2017-07-16T15:44:34.359Z,80
2017-07-16T15:46:59.360Z,80
2017-07-16T15:49:24.266Z,80
2017-07-16T15:51:49.138Z,80
2017-07-16T15:54:14.044Z,80
2017-07-16T15:56:30.445Z,80
2017-07-16T15:58:55.344Z,80
2017-07-16T16:01:20.218Z,85
2017-07-16T16:03:45.048Z,70
2017-07-16T16:06:01.438Z,65
2017-07-16T16:10:36.616Z,65
2017-07-16T16:13:01.443Z,70
2017-07-16T16:15:26.417Z,70
2017-07-16T16:17:51.257Z,65
2017-07-16T16:20:16.079Z,65
2017-07-16T16:22:40.842Z,60
2017-07-16T16:25:05.624Z,60
2017-07-16T16:27:30.350Z,55
2017-07-16T16:29:55.395Z,55
2017-07-16T16:32:20.127Z,55
2017-07-16T16:34:45.007Z,55
2017-07-16T16:37:01.273Z,55
2017-07-16T16:39:26.019Z,55
2017-07-16T16:41:50.766Z,55
2017-07-16T16:44:15.550Z,50
2017-07-16T16:46:40.353Z,50
2017-07-16T16:48:56.693Z,50
2017-07-16T16:51:21.503Z,50
2017-07-16T16:53:46.213Z,50
2017-07-16T16:56:10.978Z,55
2017-07-16T17:00:29.358Z,55
2017-07-16T17:02:54.184Z,55
2017-07-16T17:05:18.928Z,55
2017-07-16T17:07:43.696Z,55
2017-07-16T17:10:08.610Z,60
2017-07-16T17:12:33.330Z,65
2017-07-16T17:14:58.114Z,65
2017-07-16T17:17:23.180Z,65
2017-07-16T17:19:47.671Z,65
2017-07-16T17:22:12.478Z,65
2017-07-16T17:24:37.432Z,65
2017-07-16T17:27:02.129Z,60
2017-07-16T17:29:27.062Z,55
2017-07-16T17:31:51.725Z,55
2017-07-16T17:34:17.597Z,55
2017-07-16T17:36:33.765Z,55
2017-07-16T17:38:59.107Z,55
2017-07-16T17:41:23.764Z,50
2017-07-16T17:43:48.914Z,50
2017-07-16T17:46:13.608Z,50
2017-07-16T17:48:29.907Z,45
2017-07-16T17:51:01.787Z,40
2017-07-16T17:53:26.607Z,35
2017-07-16T17:55:51.300Z,40
2017-07-16T17:58:17.126Z,20
2017-07-16T18:00:41.840Z,35
2017-07-16T18:03:06.443Z,30
2017-07-16T18:05:31.528Z,30
2017-07-16T18:07:56.771Z,30
2017-07-16T18:10:21.451Z,30
2017-07-16T18:12:46.174Z,30
2017-07-16T18:17:21.129Z,25
2017-07-16T18:19:45.876Z,25
2017-07-16T18:22:10.620Z,25
2017-07-16T18:24:35.295Z,25
2017-07-16T18:27:00.112Z,25
2017-07-16T18:29:24.808Z,20
2017-07-16T18:31:49.448Z,20
2017-07-16T18:34:14.166Z,20
2017-07-16T18:36:38.802Z,20
2017-07-16T18:39:03.514Z,20
2017-07-16T18:41:28.380Z,15
2017-07-16T18:43:53.009Z,15
2017-07-16T18:46:09.220Z,15
2017-07-16T18:48:33.846Z,10
2017-07-16T18:50:58.585Z,10
2017-07-16T18:53:23.234Z,10
2017-07-16T18:55:47.791Z,10
2017-07-16T18:58:12.689Z,10
2017-07-16T19:00:37.246Z,5
2017-07-16T19:03:02.035Z,5
2017-07-16T19:05:26.646Z,5
2017-07-16T19:07:44.840Z,5
2017-07-16T19:10:09.496Z,5
2017-07-16T19:12:34.059Z,5
2017-07-16T19:14:58.678Z,0
2017-07-16T19:17:23.727Z,0
2017-07-16T19:19:48.086Z,0
2017-07-16T19:22:12.574Z,0
2017-07-16T19:24:37.785Z,0
2017-07-16T19:27:02.617Z,0
2017-07-16T19:29:27.267Z,0
2017-07-16T19:31:52.009Z,0
2017-07-16T19:34:08.377Z,0
2017-07-16T19:36:33.154Z,0
2017-07-16T19:38:57.807Z,0
2017-07-16T19:41:22.404Z,0
2017-07-16T19:43:47.139Z,0
2017-07-16T19:46:12.531Z,0
2017-07-16T19:48:37.079Z,0
2017-07-16T19:51:01.864Z,0
2017-07-16T19:55:03.194Z,0
2017-07-16T19:57:27.611Z,0
2017-07-16T19:59:52.559Z,0
2017-07-16T20:02:16.899Z,0
2017-07-16T20:04:41.419Z,0
2017-07-16T20:07:05.953Z,0
2017-07-16T20:09:30.466Z,0
2017-07-16T20:11:54.876Z,0
2017-07-16T20:14:19.418Z,0
2017-07-16T20:16:43.941Z,0
2017-07-16T20:19:08.577Z,0
2017-07-16T20:21:33.089Z,0
2017-07-16T20:23:57.501Z,0
2017-07-16T20:26:22.208Z,0
2017-07-16T20:28:46.608Z,0
2017-07-16T20:31:11.378Z,0
2017-07-16T20:33:36.958Z,0
2017-07-16T20:36:01.557Z,0
2017-07-16T20:44:02.920Z,0
2017-07-16T20:46:28.911Z,0
2017-07-16T20:48:55.405Z,0
2017-07-16T20:51:19.781Z,0
2017-07-16T20:53:44.286Z,0
2017-07-16T20:56:09.039Z,0
2017-07-16T20:58:33.435Z,0
2017-07-16T21:00:57.926Z,0
2017-07-16T21:03:22.346Z,0
2017-07-16T21:05:47.073Z,0
2017-07-16T21:08:11.285Z,0
2017-07-16T21:10:35.789Z,0
2017-07-16T21:13:00.043Z,0
2017-07-16T21:15:24.403Z,0
2017-07-16T21:17:48.708Z,0
2017-07-16T21:20:13.104Z,0
2017-07-16T21:24:39.663Z,0
2017-07-16T21:27:04.047Z,0
2017-07-16T21:29:28.383Z,0
2017-07-16T21:31:44.282Z,0
2017-07-16T21:34:08.657Z,0
2017-07-16T21:36:32.984Z,0
2017-07-16T21:40:59.476Z,0
2017-07-16T21:45:08.757Z,0
2017-07-16T21:47:33.108Z,0
2017-07-16T21:49:57.420Z,0
2017-07-16T21:52:21.711Z,0
2017-07-16T21:54:45.988Z,0
2017-07-16T21:57:10.239Z,0
2017-07-16T21:59:34.439Z,0
2017-07-16T22:01:58.751Z,0
2017-07-16T22:04:23.050Z,0
2017-07-16T22:06:47.359Z,0
2017-07-16T22:09:03.358Z,0
2017-07-16T22:11:27.664Z,0
2017-07-16T22:13:51.978Z,0
2017-07-16T22:16:16.267Z,0
2017-07-16T22:18:40.866Z,0
2017-07-16T22:21:05.082Z,0
2017-07-16T22:23:29.385Z,0
2017-07-16T22:25:53.726Z,0
2017-07-16T22:28:18.056Z,0
2017-07-16T22:30:42.308Z,0
2017-07-16T22:33:06.564Z,0
2017-07-16T22:35:34.884Z,0
2017-07-16T22:39:35.609Z,0
2017-07-16T22:41:59.925Z,0
2017-07-16T22:44:24.206Z,0
2017-07-16T22:46:48.658Z,0
2017-07-16T22:49:12.911Z,0
2017-07-16T22:51:37.166Z,0
2017-07-16T22:54:01.391Z,0
2017-07-16T22:56:25.639Z,0
2017-07-16T22:58:49.914Z,0
2017-07-16T23:01:14.239Z,0
2017-07-16T23:03:39.579Z,0
2017-07-16T23:06:03.954Z,0
2017-07-16T23:08:19.768Z,0
2017-07-16T23:10:44.022Z,0
2017-07-16T23:13:08.271Z,0
2017-07-16T23:15:24.185Z,0
2017-07-16T23:17:48.409Z,0
2017-07-16T23:20:12.614Z,0
2017-07-16T23:24:12.856Z,0
2017-07-16T23:26:37.110Z,0
2017-07-16T23:29:01.338Z,0
2017-07-16T23:33:27.984Z,0
2017-07-16T23:35:43.801Z,0
2017-07-16T23:40:18.247Z,0
2017-07-16T23:42:42.488Z,0
2017-07-16T23:45:06.735Z,0
2017-07-16T23:47:30.971Z,0
2017-07-16T23:49:55.191Z,0
2017-07-16T23:52:20.526Z,0
2017-07-16T23:54:36.298Z,0
2017-07-16T23:57:00.582Z,0
2017-07-16T23:59:24.861Z,0
